Capitol Logistics 312




KSEA
Seattle-Tacoma International Airport
Seattle, Washington
KIAD
Washington Dulles International Airport
Dulles, Virginia

Route Details

Aircraft Information
Group: Narrowbodies
Types: B738,B752
Route Data
Demand: M
Distance: 2001nm
Duration: 5h 00m
Recm'd Route: SEA NORMY J90 MWH HLN DPR MCW DBQ JOT J30 APE AIR J162 MGW GIBBZ2
Origin Wx: KSEA 270553Z 19004KT 10SM SCT085 14/14 A2982 RMK AO2 SLP103 60007 T01440139 10189 20144 50003
Dest. Wx: KIAD 270552Z 17006KT 10SM BKN007 BKN020 OVC028 20/18 A3002 RMK AO2 SLP163 T02000183 10206 20194 56018
Notes:

Financial History
Total Freight: 373,064lbs
Average Load: 93,266lbs/flt
Fuel Used: 196,945lbs
Avg. Fuel Used: 49,236lbs/flt
Fuel Expense: $220,579
Avg. Fuel Expense: $55,145
Avg. Fuel Cost: $1.12/lbs
Total Gross Income: $507,329
Pilot Pay: $1,006
Total Expenses: $54,999
Total Revenue: $226,906
Average Revenue: $126,832.13